Time;durP1;ratioP1;P1;durP2;ratioP2;P2;SDS_P1;SDS_P2;PMS_P1;PMS_P2;Temp;Humidity;BMP_temperature;BMP_pressure;BME280_temperature;BME280_humidity;BME280_pressure;Samples;Min_cycle;Max_cycle;Signal;HPM_P1;HPM_P2
2023/02/01 00:01:10;;;;;;;22.15;11.90;;;;;;;2.20;68.72;98519.22;5073194;28;20036;-61
2023/02/01 00:03:36;;;;;;;21.05;11.38;;;;;;;2.18;68.68;98521.13;5073896;28;20029;-51
2023/02/01 00:06:01;;;;;;;19.35;11.27;;;;;;;2.19;68.20;98513.06;5073703;28;20020;-53
2023/02/01 00:08:27;;;;;;;22.20;11.38;;;;;;;2.19;68.19;98512.25;5073165;28;20043;-55
2023/02/01 00:11:19;;;;;;;20.83;12.02;;;;;;;2.30;68.60;98517.63;5073876;28;20130;-53
2023/02/01 00:13:44;;;;;;;22.70;12.25;;;;;;;2.23;68.15;98521.66;5071349;28;20062;-49
2023/02/01 00:16:16;;;;;;;22.23;11.65;;;;;;;2.24;68.29;98510.13;5073727;28;20028;-51
2023/02/01 00:18:42;;;;;;;21.83;11.80;;;;;;;2.15;67.88;98504.50;5073480;28;20071;-58
2023/02/01 00:21:10;;;;;;;21.13;11.70;;;;;;;2.19;67.98;98513.06;5073520;28;20112;-52
2023/02/01 00:23:36;;;;;;;19.48;10.80;;;;;;;2.00;67.75;98485.25;5072952;28;20419;-53
2023/02/01 00:26:11;;;;;;;22.58;12.35;;;;;;;2.25;68.25;98520.59;5073170;28;20455;-56
2023/02/01 00:28:37;;;;;;;21.85;12.13;;;;;;;2.18;68.24;98515.84;5073940;28;20036;-54
2023/02/01 00:31:04;;;;;;;19.80;11.52;;;;;;;2.21;68.20;98521.75;5073356;28;20036;-55
2023/02/01 00:33:30;;;;;;;20.42;11.32;;;;;;;2.19;68.49;98523.63;5072570;28;20443;-58
2023/02/01 00:35:58;;;;;;;24.27;12.13;;;;;;;2.19;67.73;98514.88;5073352;28;20115;-51
2023/02/01 00:38:24;;;;;;;21.98;12.07;;;;;;;2.20;67.81;98513.94;5073440;28;20463;-51
2023/02/01 00:40:49;;;;;;;19.38;10.30;;;;;;;2.24;67.36;98510.97;5072241;28;20029;-50
2023/02/01 00:43:15;;;;;;;19.35;10.93;;;;;;;2.21;67.69;98510.34;5072802;28;20032;-49
2023/02/01 00:45:40;;;;;;;19.02;10.98;;;;;;;2.19;67.75;98506.97;5073075;28;20116;-50
2023/02/01 00:48:06;;;;;;;17.60;10.48;;;;;;;2.18;67.25;98508.75;5073146;28;20028;-53
2023/02/01 00:50:31;;;;;;;20.42;10.82;;;;;;;2.22;66.72;98514.69;5072886;28;20083;-53
2023/02/01 00:52:57;;;;;;;21.45;11.45;;;;;;;2.09;67.33;98497.00;5072902;28;20077;-53
2023/02/01 00:55:22;;;;;;;20.75;11.63;;;;;;;2.20;67.32;98511.31;5072833;28;20048;-52
2023/02/01 00:57:47;;;;;;;19.40;10.10;;;;;;;2.19;67.21;98512.25;5072706;28;20040;-54
2023/02/01 01:00:13;;;;;;;20.33;10.52;;;;;;;2.16;67.19;98518.56;5073241;28;20032;-60
2023/02/01 01:02:39;;;;;;;20.33;11.23;;;;;;;1.98;66.90;98484.53;5072703;28;20447;-55
2023/02/01 01:05:04;;;;;;;20.05;11.10;;;;;;;2.21;66.80;98515.63;5072760;28;20036;-55
2023/02/01 01:07:30;;;;;;;20.60;10.85;;;;;;;2.19;67.50;98512.25;5072973;28;20375;-52
2023/02/01 01:09:55;;;;;;;20.45;11.60;;;;;;;2.21;66.70;98527.03;5072098;28;20029;-52
2023/02/01 01:12:20;;;;;;;20.13;10.77;;;;;;;2.21;66.91;98518.28;5072512;28;20516;-52
2023/02/01 01:14:46;;;;;;;20.33;10.80;;;;;;;2.27;66.45;98521.31;5071825;28;20106;-52
2023/02/01 01:17:12;;;;;;;20.65;11.15;;;;;;;2.30;66.36;98522.91;5073152;28;20182;-52
2023/02/01 01:19:37;;;;;;;21.75;10.88;;;;;;;2.30;66.52;98522.91;5072770;28;20028;-54
2023/02/01 01:22:03;;;;;;;17.85;10.95;;;;;;;2.29;66.41;98530.00;5072573;28;20028;-51
2023/02/01 01:24:28;;;;;;;19.13;10.68;;;;;;;2.09;66.83;98497.00;5072076;28;20043;-53
2023/02/01 01:26:54;;;;;;;18.92;10.98;;;;;;;2.27;66.63;98531.06;5072737;28;20443;-54
2023/02/01 01:29:19;;;;;;;19.67;10.70;;;;;;;2.18;66.44;98505.28;5072495;28;20028;-57
2023/02/01 01:31:44;;;;;;;17.67;9.73;;;;;;;2.29;66.42;98524.72;5072710;28;20043;-55
2023/02/01 01:34:10;;;;;;;19.50;10.63;;;;;;;2.28;66.77;98528.28;5072558;28;20028;-56
2023/02/01 01:36:35;;;;;;;21.40;11.00;;;;;;;2.28;66.37;98530.09;5071084;28;20038;-54
2023/02/01 01:39:01;;;;;;;17.48;10.20;;;;;;;2.31;66.15;98540.47;5072181;28;20045;-53
2023/02/01 01:41:30;;;;;;;21.83;10.35;;;;;;;2.35;66.21;98541.09;5072149;28;20072;-54
2023/02/01 01:44:01;;;;;;;17.10;9.60;;;;;;;2.31;66.28;98542.28;5071299;28;20050;-55
2023/02/01 01:46:28;;;;;;;20.48;10.52;;;;;;;2.30;66.32;98533.47;5072237;28;20029;-51
2023/02/01 01:49:20;;;;;;;18.58;10.15;;;;;;;2.36;66.42;98535.72;5072241;28;20116;-52
2023/02/01 01:51:55;;;;;;;19.15;10.88;;;;;;;2.32;66.33;98536.03;5072200;28;20024;-51
2023/02/01 01:54:27;;;;;;;19.05;11.00;;;;;;;2.28;66.51;98538.03;5072030;28;20471;-53
2023/02/01 01:56:58;;;;;;;17.98;10.30;;;;;;;2.23;66.05;98530.41;5071937;28;20104;-52
2023/02/01 01:59:26;;;;;;;18.58;9.70;;;;;;;2.23;65.41;98540.13;5072065;28;20036;-53
2023/02/01 02:01:52;;;;;;;17.20;9.98;;;;;;;2.24;66.49;98528.63;5072386;28;20370;-55
2023/02/01 02:04:18;;;;;;;17.33;9.85;;;;;;;2.24;66.23;98531.25;5070841;28;20443;-59
2023/02/01 02:06:55;;;;;;;19.90;10.02;;;;;;;2.30;65.72;98528.19;5072484;28;20041;-53
2023/02/01 02:09:20;;;;;;;17.02;9.48;;;;;;;2.20;65.95;98525.34;5072158;28;20089;-50
2023/02/01 02:11:47;;;;;;;18.48;9.75;;;;;;;2.13;66.17;98524.06;5072349;28;20025;-52
2023/02/01 02:14:15;;;;;;;17.95;9.65;;;;;;;2.03;66.33;98499.19;5072027;28;20025;-51
2023/02/01 02:17:15;;;;;;;19.40;10.27;;;;;;;2.06;66.56;98505.13;5071796;28;20045;-52
2023/02/01 02:19:52;;;;;;;20.33;10.07;;;;;;;2.29;66.35;98537.06;5071987;28;20533;-53
2023/02/01 02:23:12;;;;;;;18.60;10.18;;;;;;;2.32;66.29;98536.03;5072601;28;20032;-60
2023/02/01 02:25:37;;;;;;;17.88;9.93;;;;;;;2.29;65.51;98529.16;5033906;28;20037;-53
2023/02/01 02:28:33;;;;;;;17.83;9.82;;;;;;;2.27;66.19;98547.72;5066451;28;20036;-52
2023/02/01 02:31:17;;;;;;;17.98;10.15;;;;;;;2.27;66.40;98544.25;5075611;28;20075;-54
2023/02/01 02:34:06;;;;;;;21.00;11.32;;;;;;;2.35;66.29;98543.75;5075642;28;20037;-53
2023/02/01 02:36:52;;;;;;;19.55;9.98;;;;;;;2.15;66.12;98524.81;5075126;28;20024;-58
2023/02/01 02:39:20;;;;;;;;;;;;;;;2.53;65.97;98553.06;5076191;28;20041;-50
2023/02/01 02:48:19;;;;;;;19.27;10.80;;;;;;;2.41;65.69;98552.13;5073887;28;20024;-50
2023/02/01 03:04:56;;;;;;;;;;;;;;;2.64;65.61;98554.97;5075565;28;20036;-55
2023/02/01 03:07:59;;;;;;;17.83;9.93;;;;;;;2.53;65.70;98563.66;5074793;28;19920;-55
2023/02/01 03:10:43;;;;;;;19.20;10.38;;;;;;;2.42;65.62;98555.59;5074777;28;20123;-53
2023/02/01 03:13:19;;;;;;;21.35;10.63;;;;;;;2.34;65.91;98550.81;5074601;28;20032;-54
2023/02/01 03:15:58;;;;;;;20.77;11.05;;;;;;;2.35;66.13;98555.16;5074940;28;20462;-52
2023/02/01 03:18:43;;;;;;;19.13;10.57;;;;;;;2.42;66.08;98548.53;5073428;28;20374;-53
2023/02/01 03:21:15;;;;;;;19.38;10.95;;;;;;;2.30;66.45;98554.63;5074610;28;20351;-53
2023/02/01 03:23:43;;;;;;;19.60;10.63;;;;;;;2.21;65.87;98552.59;5073661;28;20206;-50
2023/02/01 03:26:14;;;;;;;20.35;11.23;;;;;;;2.24;66.25;98562.97;5074564;28;20033;-55
2023/02/01 03:28:44;;;;;;;25.13;11.68;;;;;;;2.18;66.35;98551.00;5074114;28;20055;-50
2023/02/01 03:31:10;;;;;;;21.50;11.75;;;;;;;2.19;66.42;98549.22;5074341;28;20097;-54
2023/02/01 03:33:36;;;;;;;22.20;10.52;;;;;;;2.22;66.09;98568.31;5074299;28;20028;-51
2023/02/01 03:36:26;;;;;;;18.10;10.60;;;;;;;2.23;66.21;98567.38;5074276;28;20056;-50
2023/02/01 03:39:21;;;;;;;19.85;10.43;;;;;;;2.17;66.17;98569.56;5073846;28;20091;-51
2023/02/01 03:42:03;;;;;;;20.23;10.77;;;;;;;2.18;66.07;98579.22;5065171;28;20143;-51
2023/02/01 03:44:37;;;;;;;20.88;11.15;;;;;;;2.21;65.95;98573.72;5056141;28;20363;-53
2023/02/01 03:47:10;;;;;;;20.25;11.38;;;;;;;2.24;66.31;98579.63;5073800;28;20411;-53
2023/02/01 03:49:40;;;;;;;17.05;10.40;;;;;;;2.24;66.61;98573.53;5072913;28;20105;-53
2023/02/01 03:52:13;;;;;;;20.60;11.18;;;;;;;2.24;66.05;98574.34;5074001;28;20128;-54
2023/02/01 03:54:40;;;;;;;21.00;11.80;;;;;;;2.33;65.67;98586.09;5073153;28;20025;-50
2023/02/01 03:57:11;;;;;;;21.40;11.40;;;;;;;2.23;66.19;98566.53;5074160;28;20376;-53
2023/02/01 03:59:41;;;;;;;19.90;11.30;;;;;;;1.96;66.13;98522.53;5057973;28;20028;-54
2023/02/01 04:02:08;;;;;;;19.50;11.25;;;;;;;2.26;66.46;98585.66;5074078;28;20024;-49
2023/02/01 04:04:34;;;;;;;21.58;11.73;;;;;;;2.33;65.84;98593.19;5073870;28;20044;-52
2023/02/01 04:06:59;;;;;;;23.08;11.88;;;;;;;2.30;65.95;98594.22;5073728;28;20051;-51
2023/02/01 04:09:25;;;;;;;22.13;12.00;;;;;;;2.25;66.09;98588.41;5073724;28;20396;-52
2023/02/01 04:11:50;;;;;;;23.08;12.10;;;;;;;2.23;66.06;98588.50;5074155;28;20415;-53
2023/02/01 04:14:16;;;;;;;24.13;11.95;;;;;;;2.27;66.10;98597.09;5073124;28;20028;-54
2023/02/01 04:16:41;;;;;;;23.50;12.48;;;;;;;2.13;66.33;98572.41;5073375;28;20040;-52
2023/02/01 04:19:06;;;;;;;20.67;11.48;;;;;;;2.28;66.32;98606.69;5072528;28;20388;-51
2023/02/01 04:21:32;;;;;;;20.48;11.48;;;;;;;2.28;66.39;98606.69;5073688;28;20101;-52
2023/02/01 04:23:57;;;;;;;22.13;11.93;;;;;;;2.31;66.33;98614.41;5073318;28;20413;-53
2023/02/01 04:26:23;;;;;;;25.33;12.68;;;;;;;2.31;66.40;98606.50;5073795;28;20031;-52
2023/02/01 04:28:48;;;;;;;24.50;12.05;;;;;;;2.29;66.17;98609.25;5073682;28;20072;-53
2023/02/01 04:31:15;;;;;;;23.70;12.25;;;;;;;2.33;65.94;98609.88;5073397;28;20102;-52
2023/02/01 04:33:41;;;;;;;26.35;12.15;;;;;;;2.14;66.62;98579.38;5066251;28;20059;-58
2023/02/01 04:36:06;;;;;;;26.40;12.82;;;;;;;2.33;66.48;98615.16;5072438;28;20104;-55
2023/02/01 04:38:32;;;;;;;25.05;13.68;;;;;;;2.37;66.76;98621.91;5072644;28;20047;-58
2023/02/01 04:40:58;;;;;;;22.90;12.13;;;;;;;2.35;66.17;98613.25;5072815;28;20028;-51
2023/02/01 04:43:24;;;;;;;23.05;12.45;;;;;;;2.39;66.19;98620.03;5073608;28;20036;-49
2023/02/01 04:45:50;;;;;;;23.65;12.00;;;;;;;2.33;65.90;98625.72;5072478;28;20032;-55
2023/02/01 04:48:18;;;;;;;23.30;12.23;;;;;;;2.33;66.35;98620.44;5072966;28;20036;-56
2023/02/01 04:50:47;;;;;;;23.75;12.55;;;;;;;2.31;66.58;98624.97;5072986;28;20086;-51
2023/02/01 04:53:16;;;;;;;27.95;12.63;;;;;;;2.37;66.35;98627.22;5072593;28;20107;-53
2023/02/01 04:55:43;;;;;;;27.25;12.65;;;;;;;2.36;66.33;98630.78;5072775;28;20032;-56
2023/02/01 04:58:09;;;;;;;22.17;12.40;;;;;;;2.37;66.57;98635.13;5071354;28;20466;-53
2023/02/01 05:00:35;;;;;;;23.40;12.43;;;;;;;2.39;66.75;98635.03;5072906;28;20135;-49
2023/02/01 05:03:00;;;;;;;24.27;13.68;;;;;;;2.28;66.62;98615.44;5072680;28;20111;-60
2023/02/01 05:05:27;;;;;;;25.27;13.80;;;;;;;2.27;66.73;98616.41;5071963;28;20538;-50
2023/02/01 05:07:52;;;;;;;28.98;13.57;;;;;;;2.41;66.38;98633.16;5073191;28;20036;-55
2023/02/01 05:10:18;;;;;;;25.30;12.95;;;;;;;2.44;66.46;98644.38;5072892;28;20101;-54
2023/02/01 05:15:30;;;;;;;24.85;13.10;;;;;;;2.53;66.31;98647.34;5072457;28;20413;-58
2023/02/01 05:17:56;;;;;;;22.67;12.52;;;;;;;2.46;66.13;98641.59;5073423;28;20347;-54
2023/02/01 05:20:22;;;;;;;25.45;13.65;;;;;;;2.42;66.60;98640.97;5072547;28;20417;-57
2023/02/01 05:22:47;;;;;;;30.40;13.85;;;;;;;2.41;66.79;98649.84;5071996;28;20025;-56
2023/02/01 05:25:13;;;;;;;24.92;14.25;;;;;;;2.40;66.50;98642.03;5071833;28;20040;-55
2023/02/01 05:27:39;;;;;;;26.35;13.82;;;;;;;2.40;66.60;98644.66;5070972;28;20033;-59
2023/02/01 05:30:05;;;;;;;25.55;13.05;;;;;;;2.48;66.83;98657.38;5072434;28;20073;-60
2023/02/01 05:32:31;;;;;;;26.05;13.40;;;;;;;2.54;66.68;98651.66;5072282;28;20025;-63
2023/02/01 05:34:56;;;;;;;26.35;13.32;;;;;;;2.51;66.54;98650.06;5072546;28;20040;-56
2023/02/01 05:37:22;;;;;;;28.55;13.35;;;;;;;2.53;66.94;98661.41;5072360;28;20434;-60
2023/02/01 05:39:48;;;;;;;26.52;13.43;;;;;;;2.52;66.71;98658.84;5071208;28;20041;-59
2023/02/01 05:42:14;;;;;;;27.25;13.88;;;;;;;2.49;66.29;98654.59;5072044;28;20033;-55
2023/02/01 05:44:39;;;;;;;30.27;14.88;;;;;;;2.44;66.37;98654.94;5072338;28;20347;-54
2023/02/01 05:47:05;;;;;;;25.55;13.75;;;;;;;2.39;66.80;98658.81;5071746;28;20021;-59
2023/02/01 05:49:30;;;;;;;27.75;13.77;;;;;;;2.42;66.61;98656.84;5072089;28;20025;-58
2023/02/01 05:51:56;;;;;;;30.33;13.98;;;;;;;2.49;66.75;98657.25;5072501;28;20121;-56
2023/02/01 05:54:21;;;;;;;29.60;13.82;;;;;;;2.50;66.63;98660.75;5071038;28;20107;-59
2023/02/01 05:56:47;;;;;;;28.08;13.98;;;;;;;2.52;65.92;98662.31;5072184;28;20075;-61
2023/02/01 05:59:12;;;;;;;31.60;13.95;;;;;;;2.55;66.40;98664.78;5075370;28;20052;-59
2023/02/01 06:01:38;;;;;;;24.58;13.65;;;;;;;2.55;66.10;98662.16;5075818;28;20038;-61
2023/02/01 06:04:03;;;;;;;27.75;13.88;;;;;;;2.62;65.94;98661.75;5075786;28;20435;-62
2023/02/01 06:06:29;;;;;;;28.90;14.45;;;;;;;2.63;65.38;98668.72;5074798;28;20035;-59
2023/02/01 06:08:54;;;;;;;36.70;15.10;;;;;;;2.68;65.28;98671.88;5075732;28;20036;-59
2023/02/01 06:11:20;;;;;;;33.03;14.18;;;;;;;2.62;65.88;98675.78;5075251;28;20064;-61
2023/02/01 06:13:45;;;;;;;30.38;14.60;;;;;;;2.62;65.20;98677.59;5076183;28;20028;-59
2023/02/01 06:16:10;;;;;;;29.35;13.55;;;;;;;2.53;65.65;98665.84;5075344;28;20039;-59
2023/02/01 06:18:36;;;;;;;29.77;14.70;;;;;;;2.59;65.49;98683.91;5074566;28;20123;-57
2023/02/01 06:21:02;;;;;;;30.35;14.57;;;;;;;2.61;65.73;98679.38;5075623;28;20358;-64
2023/02/01 06:23:28;;;;;;;30.23;15.27;;;;;;;2.64;65.07;98681.81;5074973;28;20429;-57
2023/02/01 06:26:03;;;;;;;28.65;14.10;;;;;;;2.65;65.76;98683.53;5075387;28;20112;-60
2023/02/01 06:28:29;;;;;;;27.15;14.35;;;;;;;2.60;65.34;98687.41;5075335;28;20450;-61
2023/02/01 06:30:55;;;;;;;31.65;14.77;;;;;;;2.59;65.83;98683.91;5074804;28;20082;-59
2023/02/01 06:33:21;;;;;;;31.08;13.57;;;;;;;2.62;65.28;98685.53;5075216;28;20052;-59
2023/02/01 06:35:47;;;;;;;26.08;13.77;;;;;;;2.58;65.37;98687.50;5075516;28;20116;-59
2023/02/01 06:38:13;;;;;;;36.08;15.70;;;;;;;2.55;65.98;98693.88;5075116;28;20025;-59
2023/02/01 06:40:39;;;;;;;37.83;15.15;;;;;;;2.55;65.73;98693.00;5074775;28;20507;-63
2023/02/01 06:43:04;;;;;;;28.17;15.10;;;;;;;2.53;65.54;98686.97;5072312;28;20043;-60
2023/02/01 06:45:30;;;;;;;27.92;14.80;;;;;;;2.54;65.79;98681.59;5074675;28;20028;-60
2023/02/01 06:47:56;;;;;;;25.83;13.57;;;;;;;2.60;65.54;98690.91;5074200;28;20359;-58
2023/02/01 06:50:21;;;;;;;29.13;14.65;;;;;;;2.62;65.77;98694.28;5074512;28;20033;-58
2023/02/01 06:52:48;;;;;;;30.90;14.88;;;;;;;2.64;65.67;98694.19;5075056;28;20020;-58
2023/02/01 06:55:13;;;;;;;30.67;14.80;;;;;;;2.60;65.86;98690.91;5073965;28;20024;-63
2023/02/01 06:57:39;;;;;;;32.47;15.13;;;;;;;2.56;66.30;98694.69;5071706;28;20032;-52
2023/02/01 07:00:05;;;;;;;29.27;15.43;;;;;;;2.47;67.24;98698.78;5073771;28;20028;-59
2023/02/01 07:02:31;;;;;;;29.20;15.00;;;;;;;2.42;67.35;98699.09;5073827;28;20063;-57
2023/02/01 07:04:56;;;;;;;33.22;15.60;;;;;;;2.41;67.32;98702.69;5074198;28;20111;-57
2023/02/01 07:07:22;;;;;;;34.75;15.70;;;;;;;2.42;67.08;98703.53;5074439;28;20032;-59
2023/02/01 07:09:50;;;;;;;32.42;15.52;;;;;;;2.38;66.99;98691.47;5073626;28;20025;-55
2023/02/01 07:12:15;;;;;;;32.53;15.35;;;;;;;2.44;66.97;98701.63;5074457;28;20351;-58
2023/02/01 07:14:41;;;;;;;33.25;15.85;;;;;;;2.44;66.86;98705.13;5074445;28;20037;-59
2023/02/01 07:17:06;;;;;;;36.30;16.15;;;;;;;2.37;65.91;98687.13;5073445;28;20060;-53
2023/02/01 07:19:32;;;;;;;32.50;16.55;;;;;;;2.45;66.72;98708.59;5073849;28;20498;-58
2023/02/01 07:21:57;;;;;;;33.78;16.20;;;;;;;2.44;66.23;98710.41;5073333;28;20658;-60
2023/02/01 07:24:23;;;;;;;31.13;15.63;;;;;;;2.46;65.66;98714.75;5073883;28;20351;-57
2023/02/01 07:26:50;;;;;;;32.83;15.70;;;;;;;2.47;65.59;98719.09;5073780;28;20016;-61
2023/02/01 07:29:17;;;;;;;30.83;14.95;;;;;;;2.41;66.25;98729.09;5074122;28;20111;-60
2023/02/01 07:31:42;;;;;;;31.00;16.45;;;;;;;2.36;66.20;98720.63;5073967;28;20035;-68
2023/02/01 07:34:08;;;;;;;29.63;15.55;;;;;;;2.42;65.82;98724.66;5063693;28;20356;-55
2023/02/01 07:36:34;;;;;;;34.63;15.93;;;;;;;2.35;65.63;98724.19;5071398;28;20453;-55
2023/02/01 07:38:59;;;;;;;51.33;17.10;;;;;;;2.36;66.32;98725.06;5073888;28;20130;-53
2023/02/01 07:41:25;;;;;;;35.47;15.52;;;;;;;2.38;65.64;98718.72;5073701;28;20494;-55
2023/02/01 07:43:54;;;;;;;34.17;15.63;;;;;;;2.47;65.61;98732.28;5072693;28;20040;-56
2023/02/01 07:46:20;;;;;;;30.65;14.52;;;;;;;2.43;65.86;98723.72;5073962;28;20102;-55
2023/02/01 07:48:46;;;;;;;33.55;15.75;;;;;;;2.28;65.37;98699.97;5071932;28;20043;-52
2023/02/01 07:51:14;;;;;;;29.42;14.55;;;;;;;2.36;65.42;98702.13;5073758;28;20033;-55
2023/02/01 07:53:40;;;;;;;29.00;14.82;;;;;;;2.47;65.02;98729.66;5073685;28;20124;-57
2023/02/01 07:56:17;;;;;;;29.67;14.57;;;;;;;2.51;64.98;98717.94;5072449;28;20095;-55
2023/02/01 07:58:43;;;;;;;29.73;14.70;;;;;;;2.46;65.10;98723.50;5070715;28;20112;-50
2023/02/01 08:01:25;;;;;;;29.98;14.65;;;;;;;2.51;65.16;98731.16;5073131;28;20119;-59
2023/02/01 08:03:59;;;;;;;30.00;15.07;;;;;;;2.44;65.12;98717.47;5072971;28;20037;-56
2023/02/01 08:06:25;;;;;;;30.42;15.25;;;;;;;2.43;64.93;98719.28;5068178;28;20261;-52
2023/02/01 08:08:52;;;;;;;26.88;13.75;;;;;;;2.23;65.11;98694.13;5062847;28;20032;-57
2023/02/01 08:11:19;;;;;;;35.03;15.77;;;;;;;2.44;64.78;98728.91;5072778;28;20028;-55
2023/02/01 08:13:45;;;;;;;31.45;15.15;;;;;;;2.49;64.92;98719.81;5072832;28;20055;-57
2023/02/01 08:16:13;;;;;;;34.65;16.45;;;;;;;2.50;64.70;98716.25;5071580;28;20438;-54
2023/02/01 08:18:39;;;;;;;32.80;15.52;;;;;;;2.34;64.75;98677.59;5072518;28;20039;-57
2023/02/01 08:21:07;;;;;;;33.80;15.98;;;;;;;2.61;64.98;98711.09;5072792;28;20037;-54
2023/02/01 08:23:34;;;;;;;35.42;17.10;;;;;;;2.68;64.81;98714.19;5072314;28;20028;-56
2023/02/01 08:26:11;;;;;;;35.60;16.63;;;;;;;2.80;64.41;98720.44;5072930;28;20028;-56
2023/02/01 08:28:38;;;;;;;30.70;15.27;;;;;;;2.77;64.28;98715.38;5072762;28;20039;-55
2023/02/01 08:31:07;;;;;;;30.90;15.50;;;;;;;2.84;64.48;98719.28;5060674;28;20438;-53
2023/02/01 08:33:33;;;;;;;35.78;17.05;;;;;;;2.86;63.78;98712.97;5060868;28;20118;-54
2023/02/01 08:36:01;;;;;;;33.22;16.80;;;;;;;2.72;63.35;98689.22;5071743;28;20032;-58
2023/02/01 08:38:27;;;;;;;34.65;16.83;;;;;;;2.76;63.47;98711.88;5072883;28;20064;-62
2023/02/01 08:40:53;;;;;;;31.05;16.58;;;;;;;2.83;63.73;98713.16;5063992;28;20032;-54
2023/02/01 08:43:19;;;;;;;33.53;16.65;;;;;;;2.95;63.11;98721.22;5071564;28;20033;-51
2023/02/01 08:45:44;;;;;;;31.75;16.73;;;;;;;2.95;63.31;98710.66;5070240;28;20116;-54
2023/02/01 08:48:10;;;;;;;32.92;17.38;;;;;;;2.91;63.37;98698.59;5072468;28;20446;-57
2023/02/01 08:50:35;;;;;;;29.08;15.82;;;;;;;3.07;62.41;98715.13;5072459;28;20478;-53
2023/02/01 08:53:00;;;;;;;30.40;14.55;;;;;;;3.01;62.52;98716.38;5071668;28;20036;-53
2023/02/01 08:55:26;;;;;;;29.75;14.95;;;;;;;3.04;62.10;98709.19;5071400;28;20044;-52
2023/02/01 08:57:52;;;;;;;29.75;14.85;;;;;;;3.00;62.02;98704.09;5071843;28;20016;-53
2023/02/01 09:00:18;;;;;;;28.55;14.85;;;;;;;3.05;61.76;98716.16;5072666;28;20033;-50
2023/02/01 09:02:44;;;;;;;27.77;13.73;;;;;;;3.07;62.52;98693.97;5072150;28;20047;-55
2023/02/01 09:05:10;;;;;;;30.33;15.75;;;;;;;3.27;61.94;98707.63;5070505;28;20040;-53
2023/02/01 09:07:36;;;;;;;32.35;15.85;;;;;;;3.38;61.08;98714.84;5072860;28;20036;-53
2023/02/01 09:10:03;;;;;;;30.00;14.70;;;;;;;3.46;60.99;98704.56;5062752;28;20083;-53
2023/02/01 09:12:30;;;;;;;29.27;14.52;;;;;;;3.53;60.79;98708.47;5064539;28;20319;-53
2023/02/01 09:14:59;;;;;;;27.10;14.20;;;;;;;3.55;60.77;98697.78;5071830;28;20051;-62
2023/02/01 09:17:25;;;;;;;30.90;14.95;;;;;;;3.60;60.65;98700.94;5071913;28;20044;-54
2023/02/01 09:19:50;;;;;;;29.05;14.95;;;;;;;3.64;59.92;98706.88;5071928;28;20039;-59
2023/02/01 09:22:16;;;;;;;27.98;14.77;;;;;;;3.56;60.57;98705.59;5071976;28;20036;-53
2023/02/01 09:24:42;;;;;;;34.15;14.40;;;;;;;3.50;60.82;98695.44;5071360;28;20032;-54
2023/02/01 09:27:07;;;;;;;25.75;13.55;;;;;;;3.52;60.15;98692.72;5069365;28;20041;-55
2023/02/01 09:29:32;;;;;;;28.08;14.68;;;;;;;3.50;60.70;98690.16;5070345;28;20029;-56
2023/02/01 09:31:58;;;;;;;26.20;13.27;;;;;;;3.56;60.34;98695.00;5070984;28;20526;-57
2023/02/01 09:34:23;;;;;;;27.25;13.52;;;;;;;3.61;60.32;98693.84;5070839;28;20621;-56
2023/02/01 09:36:49;;;;;;;26.50;13.20;;;;;;;3.70;59.80;98701.16;5063591;28;20043;-56
2023/02/01 09:39:14;;;;;;;29.45;15.55;;;;;;;3.57;59.51;98699.34;5055060;28;20040;-56
2023/02/01 09:42:22;;;;;;;28.95;15.27;;;;;;;3.59;60.32;98689.50;5071670;28;20131;-58
2023/02/01 09:45:24;;;;;;;26.30;13.93;;;;;;;3.66;59.78;98683.81;5052355;28;20032;-60
2023/02/01 09:48:12;;;;;;;25.23;14.20;;;;;;;3.62;59.95;98690.25;5054201;28;20068;-56
2023/02/01 09:50:41;;;;;;;28.48;15.43;;;;;;;3.55;60.06;98673.97;5052044;28;20047;-54
2023/02/01 09:53:31;;;;;;;33.15;17.35;;;;;;;3.57;60.55;98688.75;5051996;28;20029;-56
2023/02/01 09:56:06;;;;;;;35.63;18.15;;;;;;;3.53;60.96;98692.59;5055439;28;20340;-57
2023/02/01 09:58:42;;;;;;;36.97;19.10;;;;;;;3.53;60.89;98692.59;5059470;28;20029;-56
2023/02/01 10:01:18;;;;;;;37.00;19.08;;;;;;;3.54;60.54;98691.63;5071434;28;20033;-56
2023/02/01 10:03:44;;;;;;;35.80;19.38;;;;;;;3.49;60.74;98684.97;5071818;28;20457;-52
2023/02/01 10:06:21;;;;;;;34.78;18.67;;;;;;;3.51;60.45;98697.13;5072452;28;20033;-54
2023/02/01 10:09:09;;;;;;;33.10;18.27;;;;;;;3.45;60.54;98692.28;5072018;28;20078;-59
2023/02/01 10:11:56;;;;;;;35.67;18.10;;;;;;;3.39;60.66;98693.53;5054623;28;20173;-55
2023/02/01 10:14:47;;;;;;;36.22;19.08;;;;;;;3.29;61.06;98687.22;5064987;28;20042;-55
2023/02/01 10:17:20;;;;;;;35.05;18.85;;;;;;;3.08;61.04;98690.38;5063148;28;20031;-56
2023/02/01 10:19:56;;;;;;;36.42;19.52;;;;;;;3.10;61.69;98687.59;5051460;28;20040;-55
2023/02/01 10:22:42;;;;;;;37.05;19.75;;;;;;;3.14;61.67;98689.13;5056210;28;20051;-54
2023/02/01 10:25:34;;;;;;;34.78;18.63;;;;;;;3.19;61.29;98687.00;5071288;28;20478;-60
2023/02/01 10:28:01;;;;;;;35.80;19.42;;;;;;;2.98;61.46;98673.41;5053234;28;20382;-56
2023/02/01 10:30:40;;;;;;;31.48;16.73;;;;;;;3.03;62.79;98686.34;5049772;28;20029;-56
2023/02/01 10:33:25;;;;;;;35.88;18.60;;;;;;;3.13;63.05;98687.38;5059012;28;20469;-55
2023/02/01 10:35:55;;;;;;;33.38;17.67;;;;;;;3.15;62.95;98685.50;5060037;28;20036;-54
2023/02/01 10:38:27;;;;;;;37.55;19.25;;;;;;;3.00;62.44;98651.22;5058395;28;20072;-57
2023/02/01 10:40:58;;;;;;;35.80;19.23;;;;;;;3.11;63.21;98679.56;5050667;28;20040;-57
2023/02/01 10:43:23;;;;;;;32.38;18.00;;;;;;;3.08;62.24;98679.78;5069771;28;20029;-58
2023/02/01 10:45:49;;;;;;;29.98;18.10;;;;;;;3.03;63.09;98676.63;5075199;28;20378;-55
2023/02/01 10:48:14;;;;;;;35.17;19.67;;;;;;;2.91;63.46;98682.72;5073102;28;20036;-57
2023/02/01 10:50:51;;;;;;;33.45;18.77;;;;;;;2.85;63.90;98686.63;5052540;28;20071;-61
2023/02/01 10:53:25;;;;;;;33.92;18.85;;;;;;;2.78;64.90;98690.63;5054787;28;20029;-62
2023/02/01 10:55:53;;;;;;;31.90;17.60;;;;;;;2.78;65.01;98682.69;5055423;28;20095;-55
2023/02/01 10:58:31;;;;;;;33.70;18.48;;;;;;;2.80;65.39;98686.09;5066055;28;20395;-58
2023/02/01 11:01:05;;;;;;;30.65;17.63;;;;;;;2.80;65.04;98694.88;5072446;28;20088;-55
2023/02/01 11:03:32;;;;;;;31.20;17.13;;;;;;;2.79;65.37;98689.69;5074003;28;20028;-52
2023/02/01 11:05:58;;;;;;;29.48;17.13;;;;;;;2.71;65.01;98676.97;5074547;28;20041;-52
2023/02/01 11:08:23;;;;;;;33.88;18.05;;;;;;;2.65;66.26;98683.53;5074242;28;20037;-57
2023/02/01 11:11:02;;;;;;;32.42;18.10;;;;;;;2.71;66.07;98688.41;5074117;28;20421;-53
2023/02/01 11:13:31;;;;;;;32.83;18.67;;;;;;;2.73;66.33;98697.06;5074798;28;20094;-56
2023/02/01 11:15:57;;;;;;;34.53;18.92;;;;;;;2.77;65.87;98681.00;5054992;28;20029;-58
2023/02/01 11:18:36;;;;;;;31.50;17.92;;;;;;;2.90;66.86;98687.19;5054125;28;20036;-62
2023/02/01 11:21:03;;;;;;;31.92;17.67;;;;;;;2.89;65.74;98685.47;5073858;28;20111;-54
2023/02/01 11:23:33;;;;;;;34.67;18.73;;;;;;;2.89;66.16;98689.91;5074174;28;20032;-54
2023/02/01 11:26:11;;;;;;;37.08;19.65;;;;;;;2.85;65.68;98671.63;5074237;28;20094;-55
2023/02/01 11:28:43;;;;;;;33.80;18.83;;;;;;;2.89;65.03;98688.09;5073178;28;20045;-57
2023/02/01 11:31:12;;;;;;;35.00;18.95;;;;;;;2.89;64.80;98696.03;5074004;28;20078;-54
2023/02/01 11:33:42;;;;;;;35.80;18.75;;;;;;;2.81;64.69;98703.63;5073702;28;20043;-56
2023/02/01 11:36:10;;;;;;;35.72;18.40;;;;;;;2.74;64.25;98692.63;5074191;28;20191;-54
2023/02/01 11:38:36;;;;;;;33.03;17.52;;;;;;;2.52;64.66;98666.78;5072517;28;20145;-53
2023/02/01 11:41:21;;;;;;;34.08;17.55;;;;;;;2.74;64.69;98687.34;5072531;28;20383;-55
2023/02/01 11:43:59;;;;;;;32.97;16.95;;;;;;;2.49;64.63;98672.28;5072953;28;20113;-58
2023/02/01 11:46:31;;;;;;;32.92;16.90;;;;;;;2.60;64.54;98696.19;5058978;28;20032;-55
2023/02/01 11:49:33;;;;;;;34.90;18.30;;;;;;;2.57;65.01;98693.75;5072398;28;20033;-54
2023/02/01 11:52:15;;;;;;;33.88;18.30;;;;;;;2.74;63.96;98703.19;5072929;28;20040;-56
2023/02/01 11:54:52;;;;;;;32.05;17.92;;;;;;;2.59;64.38;98702.41;5051179;28;20024;-54
2023/02/01 11:57:33;;;;;;;29.83;16.00;;;;;;;2.61;64.19;98705.81;5053114;28;20029;-54
2023/02/01 12:00:09;;;;;;;30.60;17.40;;;;;;;2.60;63.94;98712.03;5060579;28;20025;-55
2023/02/01 12:02:53;;;;;;;33.20;17.25;;;;;;;2.61;64.84;98707.59;5070581;28;20094;-55